sensor_id;sensor_type;location;lat;lon;timestamp;P1;durP1;ratioP1;P2;durP2;ratioP2
9761;SDS011;4920;49.594;11.022;2022-07-03T00:01:50;3.80;;;3.50;;
9761;SDS011;4920;49.594;11.022;2022-07-03T00:04:20;5.17;;;3.30;;
9761;SDS011;4920;49.594;11.022;2022-07-03T00:06:48;4.33;;;3.50;;
9761;SDS011;4920;49.594;11.022;2022-07-03T00:09:18;3.63;;;3.33;;
9761;SDS011;4920;49.594;11.022;2022-07-03T00:11:47;3.70;;;3.40;;
9761;SDS011;4920;49.594;11.022;2022-07-03T00:14:15;5.30;;;3.37;;
9761;SDS011;4920;49.594;11.022;2022-07-03T00:16:44;4.03;;;3.63;;
9761;SDS011;4920;49.594;11.022;2022-07-03T00:19:13;4.60;;;3.77;;
9761;SDS011;4920;49.594;11.022;2022-07-03T00:21:45;5.63;;;3.70;;
9761;SDS011;4920;49.594;11.022;2022-07-03T00:24:19;3.53;;;3.23;;
9761;SDS011;4920;49.594;11.022;2022-07-03T00:26:51;4.23;;;3.60;;
9761;SDS011;4920;49.594;11.022;2022-07-03T00:29:22;4.40;;;4.00;;
9761;SDS011;4920;49.594;11.022;2022-07-03T00:31:53;5.37;;;3.70;;
9761;SDS011;4920;49.594;11.022;2022-07-03T00:34:22;4.23;;;3.40;;
9761;SDS011;4920;49.594;11.022;2022-07-03T00:36:55;4.73;;;3.60;;
9761;SDS011;4920;49.594;11.022;2022-07-03T00:39:25;3.83;;;3.47;;
9761;SDS011;4920;49.594;11.022;2022-07-03T00:41:59;3.90;;;3.50;;
9761;SDS011;4920;49.594;11.022;2022-07-03T00:44:29;4.03;;;3.67;;
9761;SDS011;4920;49.594;11.022;2022-07-03T00:46:58;4.10;;;3.70;;
9761;SDS011;4920;49.594;11.022;2022-07-03T00:49:27;3.80;;;3.40;;
9761;SDS011;4920;49.594;11.022;2022-07-03T00:52:00;4.30;;;3.80;;
9761;SDS011;4920;49.594;11.022;2022-07-03T00:54:32;5.00;;;3.40;;
9761;SDS011;4920;49.594;11.022;2022-07-03T00:57:02;5.17;;;3.80;;
9761;SDS011;4920;49.594;11.022;2022-07-03T00:59:32;4.13;;;3.70;;
9761;SDS011;4920;49.594;11.022;2022-07-03T01:02:02;3.80;;;3.40;;
9761;SDS011;4920;49.594;11.022;2022-07-03T01:04:36;6.50;;;3.80;;
9761;SDS011;4920;49.594;11.022;2022-07-03T01:07:17;4.00;;;3.60;;
9761;SDS011;4920;49.594;11.022;2022-07-03T01:09:54;4.10;;;3.63;;
9761;SDS011;4920;49.594;11.022;2022-07-03T01:12:33;4.90;;;3.73;;
9761;SDS011;4920;49.594;11.022;2022-07-03T01:15:10;3.70;;;3.40;;
9761;SDS011;4920;49.594;11.022;2022-07-03T01:17:46;4.37;;;3.90;;
9761;SDS011;4920;49.594;11.022;2022-07-03T01:20:19;4.13;;;3.70;;
9761;SDS011;4920;49.594;11.022;2022-07-03T01:22:57;6.93;;;4.10;;
9761;SDS011;4920;49.594;11.022;2022-07-03T01:25:36;3.93;;;3.53;;
9761;SDS011;4920;49.594;11.022;2022-07-03T01:28:08;5.57;;;3.93;;
9761;SDS011;4920;49.594;11.022;2022-07-03T01:30:39;4.57;;;4.03;;
9761;SDS011;4920;49.594;11.022;2022-07-03T01:33:09;4.33;;;3.93;;
9761;SDS011;4920;49.594;11.022;2022-07-03T01:35:41;4.03;;;3.73;;
9761;SDS011;4920;49.594;11.022;2022-07-03T01:38:14;5.90;;;4.27;;
9761;SDS011;4920;49.594;11.022;2022-07-03T01:40:44;7.23;;;3.90;;
9761;SDS011;4920;49.594;11.022;2022-07-03T01:43:12;7.47;;;4.07;;
9761;SDS011;4920;49.594;11.022;2022-07-03T01:45:42;4.47;;;3.87;;
9761;SDS011;4920;49.594;11.022;2022-07-03T01:48:11;4.93;;;4.20;;
9761;SDS011;4920;49.594;11.022;2022-07-03T01:50:41;4.43;;;4.03;;
9761;SDS011;4920;49.594;11.022;2022-07-03T01:53:10;4.60;;;4.20;;
9761;SDS011;4920;49.594;11.022;2022-07-03T01:55:39;4.93;;;4.10;;
9761;SDS011;4920;49.594;11.022;2022-07-03T01:58:10;4.30;;;4.00;;
9761;SDS011;4920;49.594;11.022;2022-07-03T02:00:44;4.20;;;3.90;;
9761;SDS011;4920;49.594;11.022;2022-07-03T02:03:18;5.27;;;4.20;;
9761;SDS011;4920;49.594;11.022;2022-07-03T02:05:57;4.23;;;3.83;;
9761;SDS011;4920;49.594;11.022;2022-07-03T02:08:36;4.13;;;3.73;;
9761;SDS011;4920;49.594;11.022;2022-07-03T02:11:33;4.73;;;4.23;;
9761;SDS011;4920;49.594;11.022;2022-07-03T02:14:11;5.57;;;4.13;;
9761;SDS011;4920;49.594;11.022;2022-07-03T02:16:48;4.53;;;4.10;;
9761;SDS011;4920;49.594;11.022;2022-07-03T02:19:19;4.33;;;3.93;;
9761;SDS011;4920;49.594;11.022;2022-07-03T02:21:54;5.73;;;4.03;;
9761;SDS011;4920;49.594;11.022;2022-07-03T02:24:25;5.23;;;3.80;;
9761;SDS011;4920;49.594;11.022;2022-07-03T02:26:58;4.77;;;4.23;;
9761;SDS011;4920;49.594;11.022;2022-07-03T02:29:33;4.67;;;4.03;;
9761;SDS011;4920;49.594;11.022;2022-07-03T02:32:06;4.67;;;4.20;;
9761;SDS011;4920;49.594;11.022;2022-07-03T02:34:38;5.37;;;4.70;;
9761;SDS011;4920;49.594;11.022;2022-07-03T02:37:14;5.50;;;4.30;;
9761;SDS011;4920;49.594;11.022;2022-07-03T02:39:45;4.90;;;4.30;;
9761;SDS011;4920;49.594;11.022;2022-07-03T02:42:24;4.50;;;4.10;;
9761;SDS011;4920;49.594;11.022;2022-07-03T02:44:59;5.70;;;4.47;;
9761;SDS011;4920;49.594;11.022;2022-07-03T02:47:30;5.47;;;4.57;;
9761;SDS011;4920;49.594;11.022;2022-07-03T02:50:05;6.37;;;4.53;;
9761;SDS011;4920;49.594;11.022;2022-07-03T02:52:47;6.03;;;4.70;;
9761;SDS011;4920;49.594;11.022;2022-07-03T02:55:30;6.83;;;4.63;;
9761;SDS011;4920;49.594;11.022;2022-07-03T02:58:27;5.60;;;4.40;;
9761;SDS011;4920;49.594;11.022;2022-07-03T03:01:08;5.20;;;4.50;;
9761;SDS011;4920;49.594;11.022;2022-07-03T03:03:42;6.63;;;4.40;;
9761;SDS011;4920;49.594;11.022;2022-07-03T03:06:20;5.63;;;4.30;;
9761;SDS011;4920;49.594;11.022;2022-07-03T03:08:50;6.10;;;4.50;;
9761;SDS011;4920;49.594;11.022;2022-07-03T03:11:28;4.53;;;4.13;;
9761;SDS011;4920;49.594;11.022;2022-07-03T03:14:00;5.13;;;4.63;;
9761;SDS011;4920;49.594;11.022;2022-07-03T03:16:36;4.70;;;4.17;;
9761;SDS011;4920;49.594;11.022;2022-07-03T03:19:13;5.00;;;4.50;;
9761;SDS011;4920;49.594;11.022;2022-07-03T03:21:44;4.50;;;4.10;;
9761;SDS011;4920;49.594;11.022;2022-07-03T03:24:19;4.40;;;4.00;;
9761;SDS011;4920;49.594;11.022;2022-07-03T03:26:49;4.67;;;4.23;;
9761;SDS011;4920;49.594;11.022;2022-07-03T03:29:18;4.90;;;4.50;;
9761;SDS011;4920;49.594;11.022;2022-07-03T03:31:48;5.13;;;4.60;;
9761;SDS011;4920;49.594;11.022;2022-07-03T03:34:17;4.90;;;4.37;;
9761;SDS011;4920;49.594;11.022;2022-07-03T03:36:46;4.80;;;4.40;;
9761;SDS011;4920;49.594;11.022;2022-07-03T03:39:14;5.37;;;4.13;;
9761;SDS011;4920;49.594;11.022;2022-07-03T03:41:45;5.20;;;4.17;;
9761;SDS011;4920;49.594;11.022;2022-07-03T03:44:14;4.83;;;4.07;;
9761;SDS011;4920;49.594;11.022;2022-07-03T03:46:42;4.83;;;4.10;;
9761;SDS011;4920;49.594;11.022;2022-07-03T03:49:12;4.60;;;4.03;;
9761;SDS011;4920;49.594;11.022;2022-07-03T03:51:41;7.17;;;4.40;;
9761;SDS011;4920;49.594;11.022;2022-07-03T03:54:10;5.23;;;4.40;;
9761;SDS011;4920;49.594;11.022;2022-07-03T03:56:38;4.63;;;4.20;;
9761;SDS011;4920;49.594;11.022;2022-07-03T03:59:07;4.57;;;4.17;;
9761;SDS011;4920;49.594;11.022;2022-07-03T04:01:35;4.73;;;4.20;;
9761;SDS011;4920;49.594;11.022;2022-07-03T04:04:03;4.90;;;4.40;;
9761;SDS011;4920;49.594;11.022;2022-07-03T04:06:33;5.13;;;4.17;;
9761;SDS011;4920;49.594;11.022;2022-07-03T04:09:02;4.67;;;4.17;;
9761;SDS011;4920;49.594;11.022;2022-07-03T04:11:30;4.30;;;3.90;;
9761;SDS011;4920;49.594;11.022;2022-07-03T04:13:59;5.23;;;4.10;;
9761;SDS011;4920;49.594;11.022;2022-07-03T04:16:27;4.27;;;3.87;;
9761;SDS011;4920;49.594;11.022;2022-07-03T04:18:56;5.00;;;4.23;;
9761;SDS011;4920;49.594;11.022;2022-07-03T04:21:24;4.77;;;3.97;;
9761;SDS011;4920;49.594;11.022;2022-07-03T04:23:54;5.33;;;3.70;;
9761;SDS011;4920;49.594;11.022;2022-07-03T04:26:22;3.80;;;3.25;;
9761;SDS011;4920;49.594;11.022;2022-07-03T04:28:51;4.90;;;3.30;;
9761;SDS011;4920;49.594;11.022;2022-07-03T04:31:19;3.78;;;3.45;;
9761;SDS011;4920;49.594;11.022;2022-07-03T04:33:48;3.20;;;2.90;;
9761;SDS011;4920;49.594;11.022;2022-07-03T04:36:16;3.03;;;2.72;;
9761;SDS011;4920;49.594;11.022;2022-07-03T04:38:45;3.35;;;3.03;;
9761;SDS011;4920;49.594;11.022;2022-07-03T04:41:15;3.67;;;2.78;;
9761;SDS011;4920;49.594;11.022;2022-07-03T04:43:43;3.00;;;2.80;;
9761;SDS011;4920;49.594;11.022;2022-07-03T04:46:12;4.07;;;2.88;;
9761;SDS011;4920;49.594;11.022;2022-07-03T04:48:40;2.95;;;2.75;;
9761;SDS011;4920;49.594;11.022;2022-07-03T04:51:09;3.38;;;2.92;;
9761;SDS011;4920;49.594;11.022;2022-07-03T04:53:37;4.07;;;2.88;;
9761;SDS011;4920;49.594;11.022;2022-07-03T04:56:05;2.80;;;2.60;;
9761;SDS011;4920;49.594;11.022;2022-07-03T04:58:35;5.38;;;2.70;;
9761;SDS011;4920;49.594;11.022;2022-07-03T05:01:04;2.97;;;2.75;;
9761;SDS011;4920;49.594;11.022;2022-07-03T05:03:32;2.70;;;2.50;;
9761;SDS011;4920;49.594;11.022;2022-07-03T05:06:00;2.72;;;2.53;;
9761;SDS011;4920;49.594;11.022;2022-07-03T05:08:29;4.28;;;2.60;;
9761;SDS011;4920;49.594;11.022;2022-07-03T05:10:57;3.55;;;2.50;;
9761;SDS011;4920;49.594;11.022;2022-07-03T05:13:26;2.67;;;2.40;;
9761;SDS011;4920;49.594;11.022;2022-07-03T05:15:56;3.55;;;2.45;;
9761;SDS011;4920;49.594;11.022;2022-07-03T05:18:25;4.53;;;2.70;;
9761;SDS011;4920;49.594;11.022;2022-07-03T05:20:53;3.72;;;2.50;;
9761;SDS011;4920;49.594;11.022;2022-07-03T05:23:22;2.70;;;2.50;;
9761;SDS011;4920;49.594;11.022;2022-07-03T05:25:50;3.03;;;2.67;;
9761;SDS011;4920;49.594;11.022;2022-07-03T05:28:19;3.38;;;2.70;;
9761;SDS011;4920;49.594;11.022;2022-07-03T05:30:47;3.05;;;2.75;;
9761;SDS011;4920;49.594;11.022;2022-07-03T05:33:17;3.10;;;2.28;;
9761;SDS011;4920;49.594;11.022;2022-07-03T05:35:46;3.58;;;2.40;;
9761;SDS011;4920;49.594;11.022;2022-07-03T05:38:14;3.40;;;2.40;;
9761;SDS011;4920;49.594;11.022;2022-07-03T05:41:04;3.35;;;2.50;;
9761;SDS011;4920;49.594;11.022;2022-07-03T05:43:33;2.80;;;2.60;;
9761;SDS011;4920;49.594;11.022;2022-07-03T05:46:01;3.08;;;2.53;;
9761;SDS011;4920;49.594;11.022;2022-07-03T05:48:32;2.60;;;2.40;;
9761;SDS011;4920;49.594;11.022;2022-07-03T05:51:00;2.78;;;2.55;;
9761;SDS011;4920;49.594;11.022;2022-07-03T05:53:29;3.03;;;2.45;;
9761;SDS011;4920;49.594;11.022;2022-07-03T05:55:58;2.78;;;2.50;;
9761;SDS011;4920;49.594;11.022;2022-07-03T05:58:26;3.33;;;2.50;;
9761;SDS011;4920;49.594;11.022;2022-07-03T06:00:55;2.55;;;2.35;;
9761;SDS011;4920;49.594;11.022;2022-07-03T06:03:23;2.67;;;2.47;;
9761;SDS011;4920;49.594;11.022;2022-07-03T06:05:53;3.80;;;2.50;;
9761;SDS011;4920;49.594;11.022;2022-07-03T06:08:22;2.45;;;2.25;;
9761;SDS011;4920;49.594;11.022;2022-07-03T06:10:50;2.60;;;2.40;;
9761;SDS011;4920;49.594;11.022;2022-07-03T06:13:18;4.78;;;2.60;;
9761;SDS011;4920;49.594;11.022;2022-07-03T06:15:47;2.72;;;2.42;;
9761;SDS011;4920;49.594;11.022;2022-07-03T06:18:15;5.28;;;2.47;;
9761;SDS011;4920;49.594;11.022;2022-07-03T06:20:43;3.25;;;2.63;;
9761;SDS011;4920;49.594;11.022;2022-07-03T06:23:13;3.67;;;2.67;;
9761;SDS011;4920;49.594;11.022;2022-07-03T06:26:02;2.92;;;2.63;;
9761;SDS011;4920;49.594;11.022;2022-07-03T06:28:30;2.90;;;2.50;;
9761;SDS011;4920;49.594;11.022;2022-07-03T06:30:58;4.97;;;2.85;;
9761;SDS011;4920;49.594;11.022;2022-07-03T06:33:27;3.40;;;2.75;;
9761;SDS011;4920;49.594;11.022;2022-07-03T06:35:55;4.88;;;2.67;;
9761;SDS011;4920;49.594;11.022;2022-07-03T06:38:25;3.83;;;2.78;;
9761;SDS011;4920;49.594;11.022;2022-07-03T06:40:54;3.28;;;2.67;;
9761;SDS011;4920;49.594;11.022;2022-07-03T06:43:22;3.33;;;2.80;;
9761;SDS011;4920;49.594;11.022;2022-07-03T06:45:50;4.45;;;2.80;;
9761;SDS011;4920;49.594;11.022;2022-07-03T06:48:19;3.03;;;2.50;;
9761;SDS011;4920;49.594;11.022;2022-07-03T06:50:47;2.80;;;2.50;;
9761;SDS011;4920;49.594;11.022;2022-07-03T06:53:17;3.25;;;2.67;;
9761;SDS011;4920;49.594;11.022;2022-07-03T06:55:46;3.35;;;2.58;;
9761;SDS011;4920;49.594;11.022;2022-07-03T06:58:15;3.15;;;2.63;;
9761;SDS011;4920;49.594;11.022;2022-07-03T07:00:43;2.70;;;2.50;;
9761;SDS011;4920;49.594;11.022;2022-07-03T07:03:12;5.35;;;2.60;;
9761;SDS011;4920;49.594;11.022;2022-07-03T07:05:40;4.30;;;2.30;;
9761;SDS011;4920;49.594;11.022;2022-07-03T07:08:09;3.05;;;2.00;;
9761;SDS011;4920;49.594;11.022;2022-07-03T07:10:37;3.90;;;2.30;;
9761;SDS011;4920;49.594;11.022;2022-07-03T07:13:07;2.63;;;2.42;;
9761;SDS011;4920;49.594;11.022;2022-07-03T07:15:36;3.25;;;2.45;;
9761;SDS011;4920;49.594;11.022;2022-07-03T07:18:04;2.67;;;2.38;;
9761;SDS011;4920;49.594;11.022;2022-07-03T07:20:33;4.07;;;2.50;;
9761;SDS011;4920;49.594;11.022;2022-07-03T07:23:01;2.75;;;2.55;;
9761;SDS011;4920;49.594;11.022;2022-07-03T07:25:30;2.85;;;2.10;;
9761;SDS011;4920;49.594;11.022;2022-07-03T07:27:58;3.10;;;2.05;;
9761;SDS011;4920;49.594;11.022;2022-07-03T07:30:28;2.75;;;2.45;;
9761;SDS011;4920;49.594;11.022;2022-07-03T07:32:56;2.60;;;2.40;;
9761;SDS011;4920;49.594;11.022;2022-07-03T07:35:25;2.60;;;2.40;;
9761;SDS011;4920;49.594;11.022;2022-07-03T07:37:53;2.92;;;2.22;;
9761;SDS011;4920;49.594;11.022;2022-07-03T07:40:22;3.40;;;2.20;;
9761;SDS011;4920;49.594;11.022;2022-07-03T07:42:50;2.80;;;2.00;;
9761;SDS011;4920;49.594;11.022;2022-07-03T07:45:19;2.53;;;2.33;;
9761;SDS011;4920;49.594;11.022;2022-07-03T07:47:50;3.15;;;2.20;;
9761;SDS011;4920;49.594;11.022;2022-07-03T07:50:18;5.68;;;2.22;;
9761;SDS011;4920;49.594;11.022;2022-07-03T07:52:47;2.92;;;2.20;;
9761;SDS011;4920;49.594;11.022;2022-07-03T07:55:15;3.25;;;2.00;;
9761;SDS011;4920;49.594;11.022;2022-07-03T07:57:44;5.00;;;2.35;;
9761;SDS011;4920;49.594;11.022;2022-07-03T08:00:13;4.40;;;2.40;;
9761;SDS011;4920;49.594;11.022;2022-07-03T08:02:43;2.55;;;2.35;;
9761;SDS011;4920;49.594;11.022;2022-07-03T08:05:32;3.42;;;2.20;;
9761;SDS011;4920;49.594;11.022;2022-07-03T08:08:04;3.58;;;2.40;;
9761;SDS011;4920;49.594;11.022;2022-07-03T08:10:36;2.30;;;2.10;;
9761;SDS011;4920;49.594;11.022;2022-07-03T08:13:06;3.42;;;2.40;;
9761;SDS011;4920;49.594;11.022;2022-07-03T08:15:35;3.03;;;2.35;;
9761;SDS011;4920;49.594;11.022;2022-07-03T08:18:03;2.30;;;2.10;;
9761;SDS011;4920;49.594;11.022;2022-07-03T08:20:34;2.97;;;1.70;;
9761;SDS011;4920;49.594;11.022;2022-07-03T08:23:04;4.03;;;2.00;;
9761;SDS011;4920;49.594;11.022;2022-07-03T08:25:33;2.63;;;1.90;;
9761;SDS011;4920;49.594;11.022;2022-07-03T08:28:01;2.83;;;2.10;;
9761;SDS011;4920;49.594;11.022;2022-07-03T08:30:30;2.45;;;1.90;;
9761;SDS011;4920;49.594;11.022;2022-07-03T08:32:59;3.55;;;2.10;;
9761;SDS011;4920;49.594;11.022;2022-07-03T08:35:28;4.28;;;1.90;;
9761;SDS011;4920;49.594;11.022;2022-07-03T08:37:58;4.20;;;1.92;;
9761;SDS011;4920;49.594;11.022;2022-07-03T08:40:27;3.40;;;2.10;;
9761;SDS011;4920;49.594;11.022;2022-07-03T08:42:56;3.03;;;1.80;;
9761;SDS011;4920;49.594;11.022;2022-07-03T08:45:27;2.25;;;1.90;;
9761;SDS011;4920;49.594;11.022;2022-07-03T08:47:57;2.55;;;1.98;;
9761;SDS011;4920;49.594;11.022;2022-07-03T08:50:27;4.50;;;1.90;;
9761;SDS011;4920;49.594;11.022;2022-07-03T08:52:58;2.67;;;1.80;;
9761;SDS011;4920;49.594;11.022;2022-07-03T08:55:29;2.30;;;1.83;;
9761;SDS011;4920;49.594;11.022;2022-07-03T08:58:00;2.75;;;2.05;;
9761;SDS011;4920;49.594;11.022;2022-07-03T09:00:29;1.80;;;1.70;;
9761;SDS011;4920;49.594;11.022;2022-07-03T09:02:59;2.67;;;1.90;;
9761;SDS011;4920;49.594;11.022;2022-07-03T09:05:31;3.30;;;2.00;;
9761;SDS011;4920;49.594;11.022;2022-07-03T09:08:05;2.40;;;1.80;;
9761;SDS011;4920;49.594;11.022;2022-07-03T09:10:34;2.00;;;1.80;;
9761;SDS011;4920;49.594;11.022;2022-07-03T09:13:03;2.92;;;2.00;;
9761;SDS011;4920;49.594;11.022;2022-07-03T09:15:31;1.77;;;1.67;;
9761;SDS011;4920;49.594;11.022;2022-07-03T09:18:00;1.90;;;1.55;;
9761;SDS011;4920;49.594;11.022;2022-07-03T09:20:31;2.50;;;1.63;;
9761;SDS011;4920;49.594;11.022;2022-07-03T09:23:09;1.70;;;1.60;;
9761;SDS011;4920;49.594;11.022;2022-07-03T09:25:52;3.50;;;1.55;;
9761;SDS011;4920;49.594;11.022;2022-07-03T09:28:22;2.40;;;1.45;;
9761;SDS011;4920;49.594;11.022;2022-07-03T09:30:58;2.28;;;1.67;;
9761;SDS011;4920;49.594;11.022;2022-07-03T09:33:28;4.63;;;1.77;;
9761;SDS011;4920;49.594;11.022;2022-07-03T09:35:57;2.53;;;1.63;;
9761;SDS011;4920;49.594;11.022;2022-07-03T09:38:27;1.98;;;1.70;;
9761;SDS011;4920;49.594;11.022;2022-07-03T09:40:55;2.72;;;1.50;;
9761;SDS011;4920;49.594;11.022;2022-07-03T09:43:25;1.95;;;1.50;;
9761;SDS011;4920;49.594;11.022;2022-07-03T09:45:56;2.58;;;1.40;;
9761;SDS011;4920;49.594;11.022;2022-07-03T09:48:27;1.60;;;1.45;;
9761;SDS011;4920;49.594;11.022;2022-07-03T09:53:55;2.22;;;1.55;;
9761;SDS011;4920;49.594;11.022;2022-07-03T09:56:25;1.75;;;1.48;;
9761;SDS011;4920;49.594;11.022;2022-07-03T09:58:59;3.08;;;1.50;;
9761;SDS011;4920;49.594;11.022;2022-07-03T10:01:28;1.65;;;1.30;;
9761;SDS011;4920;49.594;11.022;2022-07-03T10:04:08;1.90;;;1.58;;
9761;SDS011;4920;49.594;11.022;2022-07-03T10:06:51;1.42;;;1.33;;
9761;SDS011;4920;49.594;11.022;2022-07-03T10:09:23;1.40;;;1.30;;
9761;SDS011;4920;49.594;11.022;2022-07-03T10:11:54;4.90;;;1.23;;
9761;SDS011;4920;49.594;11.022;2022-07-03T10:14:23;1.48;;;1.30;;
9761;SDS011;4920;49.594;11.022;2022-07-03T10:16:53;2.40;;;1.40;;
9761;SDS011;4920;49.594;11.022;2022-07-03T10:19:25;2.72;;;1.45;;
9761;SDS011;4920;49.594;11.022;2022-07-03T10:21:55;2.65;;;1.50;;
9761;SDS011;4920;49.594;11.022;2022-07-03T10:24:27;2.85;;;1.30;;
9761;SDS011;4920;49.594;11.022;2022-07-03T10:26:57;1.20;;;1.10;;
9761;SDS011;4920;49.594;11.022;2022-07-03T10:29:27;3.70;;;1.58;;
9761;SDS011;4920;49.594;11.022;2022-07-03T10:31:56;2.47;;;1.55;;
9761;SDS011;4920;49.594;11.022;2022-07-03T10:34:26;2.45;;;1.23;;
9761;SDS011;4920;49.594;11.022;2022-07-03T10:36:57;3.95;;;1.20;;
9761;SDS011;4920;49.594;11.022;2022-07-03T10:39:32;2.72;;;1.17;;
9761;SDS011;4920;49.594;11.022;2022-07-03T10:42:05;2.90;;;1.08;;
9761;SDS011;4920;49.594;11.022;2022-07-03T10:45:06;1.45;;;0.98;;
9761;SDS011;4920;49.594;11.022;2022-07-03T10:47:37;1.80;;;0.98;;
9761;SDS011;4920;49.594;11.022;2022-07-03T10:50:07;2.22;;;1.00;;
9761;SDS011;4920;49.594;11.022;2022-07-03T10:52:37;1.23;;;1.13;;
9761;SDS011;4920;49.594;11.022;2022-07-03T10:55:09;2.30;;;1.23;;
9761;SDS011;4920;49.594;11.022;2022-07-03T10:57:38;3.38;;;1.10;;
9761;SDS011;4920;49.594;11.022;2022-07-03T11:00:14;1.33;;;1.00;;
9761;SDS011;4920;49.594;11.022;2022-07-03T11:02:46;1.02;;;0.93;;
9761;SDS011;4920;49.594;11.022;2022-07-03T11:05:18;0.88;;;0.85;;
9761;SDS011;4920;49.594;11.022;2022-07-03T11:08:03;1.00;;;0.90;;
9761;SDS011;4920;49.594;11.022;2022-07-03T11:10:35;1.33;;;1.00;;
9761;SDS011;4920;49.594;11.022;2022-07-03T11:13:17;1.20;;;1.00;;
9761;SDS011;4920;49.594;11.022;2022-07-03T11:15:49;1.38;;;1.00;;
9761;SDS011;4920;49.594;11.022;2022-07-03T11:18:29;2.63;;;0.90;;
9761;SDS011;4920;49.594;11.022;2022-07-03T11:23:59;1.45;;;1.10;;
9761;SDS011;4920;49.594;11.022;2022-07-03T11:26:46;2.17;;;0.98;;
9761;SDS011;4920;49.594;11.022;2022-07-03T11:29:48;1.67;;;0.88;;
9761;SDS011;4920;49.594;11.022;2022-07-03T11:32:30;1.15;;;1.00;;
9761;SDS011;4920;49.594;11.022;2022-07-03T11:38:21;1.13;;;0.90;;
9761;SDS011;4920;49.594;11.022;2022-07-03T11:40:55;3.15;;;0.90;;
9761;SDS011;4920;49.594;11.022;2022-07-03T11:43:27;2.10;;;1.17;;
9761;SDS011;4920;49.594;11.022;2022-07-03T11:45:55;2.97;;;1.08;;
9761;SDS011;4920;49.594;11.022;2022-07-03T11:48:24;1.33;;;1.00;;
9761;SDS011;4920;49.594;11.022;2022-07-03T11:50:58;2.38;;;0.93;;
9761;SDS011;4920;49.594;11.022;2022-07-03T11:53:29;1.52;;;1.00;;
9761;SDS011;4920;49.594;11.022;2022-07-03T11:56:00;1.38;;;1.10;;
9761;SDS011;4920;49.594;11.022;2022-07-03T12:01:28;0.80;;;0.80;;
9761;SDS011;4920;49.594;11.022;2022-07-03T12:04:02;1.08;;;0.90;;
9761;SDS011;4920;49.594;11.022;2022-07-03T12:06:37;2.05;;;1.00;;
9761;SDS011;4920;49.594;11.022;2022-07-03T12:09:17;1.10;;;1.00;;
9761;SDS011;4920;49.594;11.022;2022-07-03T12:11:57;1.00;;;0.90;;
9761;SDS011;4920;49.594;11.022;2022-07-03T12:14:38;1.92;;;1.00;;
9761;SDS011;4920;49.594;11.022;2022-07-03T12:17:10;0.95;;;0.90;;
9761;SDS011;4920;49.594;11.022;2022-07-03T12:19:46;1.92;;;0.90;;
9761;SDS011;4920;49.594;11.022;2022-07-03T12:22:22;2.90;;;0.88;;
9761;SDS011;4920;49.594;11.022;2022-07-03T12:24:59;1.75;;;0.90;;
9761;SDS011;4920;49.594;11.022;2022-07-03T12:27:28;1.00;;;0.90;;
9761;SDS011;4920;49.594;11.022;2022-07-03T12:29:59;0.80;;;0.80;;
9761;SDS011;4920;49.594;11.022;2022-07-03T12:32:28;1.33;;;0.90;;
9761;SDS011;4920;49.594;11.022;2022-07-03T12:34:57;1.20;;;0.90;;
9761;SDS011;4920;49.594;11.022;2022-07-03T12:37:32;1.15;;;0.95;;
9761;SDS011;4920;49.594;11.022;2022-07-03T12:40:02;1.92;;;0.90;;
9761;SDS011;4920;49.594;11.022;2022-07-03T12:42:41;2.45;;;0.90;;
9761;SDS011;4920;49.594;11.022;2022-07-03T12:45:12;2.55;;;0.90;;
9761;SDS011;4920;49.594;11.022;2022-07-03T12:47:43;1.33;;;1.10;;
9761;SDS011;4920;49.594;11.022;2022-07-03T12:50:12;1.00;;;0.90;;
9761;SDS011;4920;49.594;11.022;2022-07-03T12:52:50;1.17;;;0.80;;
9761;SDS011;4920;49.594;11.022;2022-07-03T12:55:22;2.58;;;0.80;;
9761;SDS011;4920;49.594;11.022;2022-07-03T12:58:11;1.27;;;0.80;;
9761;SDS011;4920;49.594;11.022;2022-07-03T13:00:59;1.65;;;0.90;;
9761;SDS011;4920;49.594;11.022;2022-07-03T13:03:29;1.20;;;0.80;;
9761;SDS011;4920;49.594;11.022;2022-07-03T13:06:12;1.65;;;0.80;;
9761;SDS011;4920;49.594;11.022;2022-07-03T13:08:48;1.38;;;0.82;;
9761;SDS011;4920;49.594;11.022;2022-07-03T13:11:27;0.98;;;0.80;;
9761;SDS011;4920;49.594;11.022;2022-07-03T13:14:02;2.65;;;0.80;;
9761;SDS011;4920;49.594;11.022;2022-07-03T13:16:37;1.45;;;0.98;;
9761;SDS011;4920;49.594;11.022;2022-07-03T13:19:10;1.02;;;0.93;;
9761;SDS011;4920;49.594;11.022;2022-07-03T13:21:40;1.35;;;0.90;;
9761;SDS011;4920;49.594;11.022;2022-07-03T13:24:10;1.15;;;0.90;;
9761;SDS011;4920;49.594;11.022;2022-07-03T13:26:40;1.55;;;0.90;;
9761;SDS011;4920;49.594;11.022;2022-07-03T13:29:09;0.85;;;0.80;;
9761;SDS011;4920;49.594;11.022;2022-07-03T13:31:39;1.10;;;0.80;;
9761;SDS011;4920;49.594;11.022;2022-07-03T13:34:08;3.70;;;0.90;;
9761;SDS011;4920;49.594;11.022;2022-07-03T13:36:36;0.88;;;0.60;;
9761;SDS011;4920;49.594;11.022;2022-07-03T13:39:05;1.42;;;0.90;;
9761;SDS011;4920;49.594;11.022;2022-07-03T13:41:35;1.45;;;0.82;;
9761;SDS011;4920;49.594;11.022;2022-07-03T13:44:04;3.22;;;1.00;;
9761;SDS011;4920;49.594;11.022;2022-07-03T13:46:32;1.58;;;0.82;;
9761;SDS011;4920;49.594;11.022;2022-07-03T13:49:02;1.75;;;0.70;;
9761;SDS011;4920;49.594;11.022;2022-07-03T13:51:30;1.98;;;0.90;;
9761;SDS011;4920;49.594;11.022;2022-07-03T13:53:59;1.08;;;0.70;;
9761;SDS011;4920;49.594;11.022;2022-07-03T13:56:27;1.65;;;0.70;;
9761;SDS011;4920;49.594;11.022;2022-07-03T13:58:56;0.70;;;0.70;;
9761;SDS011;4920;49.594;11.022;2022-07-03T14:01:25;0.90;;;0.73;;
9761;SDS011;4920;49.594;11.022;2022-07-03T14:03:53;1.30;;;0.70;;
9761;SDS011;4920;49.594;11.022;2022-07-03T14:06:23;1.75;;;0.90;;
9761;SDS011;4920;49.594;11.022;2022-07-03T14:08:51;0.85;;;0.70;;
9761;SDS011;4920;49.594;11.022;2022-07-03T14:11:20;0.73;;;0.70;;
9761;SDS011;4920;49.594;11.022;2022-07-03T14:13:49;0.82;;;0.80;;
9761;SDS011;4920;49.594;11.022;2022-07-03T14:16:17;1.02;;;0.80;;
9761;SDS011;4920;49.594;11.022;2022-07-03T14:18:46;1.40;;;0.82;;
9761;SDS011;4920;49.594;11.022;2022-07-03T14:21:14;2.00;;;0.80;;
9761;SDS011;4920;49.594;11.022;2022-07-03T14:23:44;0.80;;;0.80;;
9761;SDS011;4920;49.594;11.022;2022-07-03T14:26:13;1.35;;;0.85;;
9761;SDS011;4920;49.594;11.022;2022-07-03T14:28:41;1.35;;;0.90;;
9761;SDS011;4920;49.594;11.022;2022-07-03T14:31:27;0.80;;;0.80;;
9761;SDS011;4920;49.594;11.022;2022-07-03T14:34:12;2.78;;;0.82;;
9761;SDS011;4920;49.594;11.022;2022-07-03T14:36:41;1.55;;;0.65;;
9761;SDS011;4920;49.594;11.022;2022-07-03T14:39:12;2.13;;;0.98;;
9761;SDS011;4920;49.594;11.022;2022-07-03T14:41:41;1.65;;;1.02;;
9761;SDS011;4920;49.594;11.022;2022-07-03T14:44:09;3.00;;;2.03;;
9761;SDS011;4920;49.594;11.022;2022-07-03T14:46:38;1.08;;;0.80;;
9761;SDS011;4920;49.594;11.022;2022-07-03T14:49:06;1.58;;;0.80;;
9761;SDS011;4920;49.594;11.022;2022-07-03T14:51:35;1.10;;;0.90;;
9761;SDS011;4920;49.594;11.022;2022-07-03T14:54:03;0.95;;;0.85;;
9761;SDS011;4920;49.594;11.022;2022-07-03T14:56:33;2.17;;;0.80;;
9761;SDS011;4920;49.594;11.022;2022-07-03T14:59:07;1.23;;;0.82;;
9761;SDS011;4920;49.594;11.022;2022-07-03T15:01:37;0.77;;;0.75;;
9761;SDS011;4920;49.594;11.022;2022-07-03T15:04:09;1.80;;;0.80;;
9761;SDS011;4920;49.594;11.022;2022-07-03T15:06:47;1.95;;;0.80;;
9761;SDS011;4920;49.594;11.022;2022-07-03T15:09:18;2.17;;;0.90;;
9761;SDS011;4920;49.594;11.022;2022-07-03T15:11:54;0.82;;;0.80;;
9761;SDS011;4920;49.594;11.022;2022-07-03T15:14:42;2.92;;;0.90;;
9761;SDS011;4920;49.594;11.022;2022-07-03T15:17:12;0.70;;;0.70;;
9761;SDS011;4920;49.594;11.022;2022-07-03T15:19:40;0.80;;;0.80;;
9761;SDS011;4920;49.594;11.022;2022-07-03T15:22:15;3.50;;;1.00;;
9761;SDS011;4920;49.594;11.022;2022-07-03T15:24:43;1.08;;;0.98;;
9761;SDS011;4920;49.594;11.022;2022-07-03T15:27:18;1.33;;;1.00;;
9761;SDS011;4920;49.594;11.022;2022-07-03T15:29:48;1.60;;;1.20;;
9761;SDS011;4920;49.594;11.022;2022-07-03T15:32:17;2.88;;;1.20;;
9761;SDS011;4920;49.594;11.022;2022-07-03T15:34:46;2.22;;;1.10;;
9761;SDS011;4920;49.594;11.022;2022-07-03T15:37:18;2.47;;;0.95;;
9761;SDS011;4920;49.594;11.022;2022-07-03T15:40:02;1.27;;;0.93;;